Time;durP1;ratioP1;P1;durP2;ratioP2;P2;SDS_P1;SDS_P2;PMS_P1;PMS_P2;Temp;Humidity;BMP_temperature;BMP_pressure;BME280_temperature;BME280_humidity;BME280_pressure;Samples;Min_cycle;Max_cycle;Signal;HPM_P1;HPM_P2
2023/09/27 00:01:25;;;;;;;0.70;0.70;;;;;;;8.00;93.95;100723.41;6160421;23;20025;-89
2023/09/27 00:03:53;;;;;;;0.70;0.70;;;;;;;7.98;94.08;100739.75;6159735;23;20049;-89
2023/09/27 00:06:21;;;;;;;0.73;0.73;;;;;;;7.94;94.27;100738.44;6160712;23;20464;-90
2023/09/27 00:08:48;;;;;;;0.73;0.73;;;;;;;7.96;94.32;100735.59;6161471;23;20028;-89
2023/09/27 00:11:15;;;;;;;0.70;0.70;;;;;;;7.95;94.27;100739.28;6163452;23;20025;-90
2023/09/27 00:13:42;;;;;;;0.80;0.80;;;;;;;7.97;94.31;100743.44;6175833;23;20077;-92
2023/09/27 00:16:09;;;;;;;0.68;0.68;;;;;;;7.96;93.99;100731.03;6183426;23;20010;-89
2023/09/27 00:18:36;;;;;;;0.70;0.70;;;;;;;7.92;94.04;100735.09;6175118;23;20026;-90
2023/09/27 00:21:03;;;;;;;0.70;0.70;;;;;;;7.91;94.09;100736.13;6155879;23;20026;-90
2023/09/27 00:23:30;;;;;;;0.70;0.70;;;;;;;7.92;94.21;100728.91;6157971;23;20441;-91
2023/09/27 00:25:57;;;;;;;0.70;0.70;;;;;;;7.90;94.42;100733.63;6156585;23;20025;-91
2023/09/27 00:28:25;;;;;;;0.70;0.70;;;;;;;7.90;94.46;100737.16;6156471;23;20021;-89
2023/09/27 00:30:52;;;;;;;0.70;0.70;;;;;;;7.95;94.53;100728.53;6156229;23;20053;-90
2023/09/27 00:33:19;;;;;;;0.70;0.70;;;;;;;7.97;94.33;100734.56;6156667;23;20022;-89
2023/09/27 00:35:50;;;;;;;0.60;0.60;;;;;;;8.02;94.23;100734.84;6155023;23;20021;-90
2023/09/27 00:38:18;;;;;;;0.70;0.70;;;;;;;8.07;94.04;100724.34;6155742;23;20457;-90
2023/09/27 00:40:50;;;;;;;0.70;0.70;;;;;;;8.16;93.72;100731.31;6157675;23;20449;-89
2023/09/27 00:43:43;;;;;;;0.70;0.70;;;;;;;8.25;92.82;100723.97;6157518;23;20017;-90
2023/09/27 00:46:12;;;;;;;0.63;0.63;;;;;;;8.27;92.65;100731.84;6151163;23;20025;-90
2023/09/27 00:48:41;;;;;;;0.70;0.70;;;;;;;8.24;92.45;100725.00;6154678;23;20025;-89
2023/09/27 00:51:08;;;;;;;0.70;0.70;;;;;;;8.21;92.62;100728.06;6132073;23;20025;-91
2023/09/27 00:53:36;;;;;;;0.70;0.70;;;;;;;8.15;92.61;100724.28;6155920;23;20029;-90
2023/09/27 00:56:04;;;;;;;0.70;0.70;;;;;;;8.02;92.83;100727.59;6130917;23;20084;-90
2023/09/27 00:58:34;;;;;;;0.70;0.70;;;;;;;7.93;93.54;100728.72;6157138;23;20077;-89
2023/09/27 01:01:01;;;;;;;0.60;0.60;;;;;;;7.85;93.98;100727.97;6110355;23;19997;-90
2023/09/27 01:03:32;;;;;;;0.70;0.70;;;;;;;7.80;94.30;100732.06;6150974;23;20021;-88
2023/09/27 01:06:04;;;;;;;0.70;0.70;;;;;;;7.81;94.61;100730.19;6161159;23;20472;-90
2023/09/27 01:08:32;;;;;;;0.70;0.70;;;;;;;7.78;94.58;100739.47;6157384;23;20454;-90
2023/09/27 01:11:00;;;;;;;0.70;0.70;;;;;;;7.73;95.12;100731.13;6130094;23;20025;-88
2023/09/27 01:13:27;;;;;;;0.70;0.70;;;;;;;7.79;95.18;100725.00;6157120;23;20424;-90
2023/09/27 01:15:54;;;;;;;0.60;0.60;;;;;;;7.87;95.03;100724.06;6107217;23;20041;-90
2023/09/27 01:18:21;;;;;;;0.70;0.70;;;;;;;7.79;95.28;100734.91;6158515;23;20028;-90
2023/09/27 01:20:48;;;;;;;0.80;0.80;;;;;;;7.70;95.34;100727.97;6150555;23;20025;-87
2023/09/27 01:23:16;;;;;;;0.70;0.70;;;;;;;7.61;95.84;100735.28;6137174;23;20483;-90
2023/09/27 01:25:43;;;;;;;0.60;0.60;;;;;;;7.53;95.98;100735.34;6157484;23;20028;-89
2023/09/27 01:28:10;;;;;;;0.70;0.70;;;;;;;7.51;96.43;100738.22;6156606;23;20026;-89
2023/09/27 01:30:38;;;;;;;0.65;0.65;;;;;;;7.54;96.62;100728.94;6156060;23;20356;-89
2023/09/27 01:33:07;;;;;;;0.70;0.70;;;;;;;7.52;97.16;100730.97;6155639;23;20376;-90
2023/09/27 01:35:39;;;;;;;0.80;0.80;;;;;;;7.53;97.49;100733.50;6132461;23;20465;-90
2023/09/27 01:38:08;;;;;;;0.70;0.70;;;;;;;7.53;97.39;100730.81;6157551;23;20018;-88
2023/09/27 01:40:38;;;;;;;0.68;0.68;;;;;;;7.50;97.26;100731.19;6134186;23;20029;-90
2023/09/27 01:43:05;;;;;;;0.70;0.70;;;;;;;7.46;97.37;100734.41;6158208;23;20023;-91
2023/09/27 01:45:34;;;;;;;0.70;0.70;;;;;;;7.43;97.51;100740.16;6156442;23;20025;-90
2023/09/27 01:48:04;;;;;;;0.70;0.70;;;;;;;7.39;97.77;100736.97;6156102;23;20068;-90
2023/09/27 01:50:33;;;;;;;0.70;0.70;;;;;;;7.38;97.86;100727.25;6157070;23;20025;-90
2023/09/27 01:53:00;;;;;;;0.70;0.70;;;;;;;7.37;97.94;100734.50;6106591;23;20044;-90
2023/09/27 01:55:27;;;;;;;0.68;0.68;;;;;;;7.41;97.42;100737.63;6155299;23;20080;-89
2023/09/27 01:57:55;;;;;;;0.73;0.73;;;;;;;7.33;97.31;100735.84;6153609;23;20021;-90
2023/09/27 02:00:23;;;;;;;0.60;0.60;;;;;;;7.33;97.69;100735.84;6153742;23;20052;-89
2023/09/27 02:02:53;;;;;;;0.70;0.70;;;;;;;7.35;97.52;100733.81;6155739;23;20034;-89
2023/09/27 02:05:21;;;;;;;0.70;0.70;;;;;;;7.30;97.37;100730.03;6155883;23;20028;-89
2023/09/27 02:07:48;;;;;;;0.60;0.60;;;;;;;7.30;97.81;100736.22;6153394;23;20025;-89
2023/09/27 02:10:15;;;;;;;0.70;0.70;;;;;;;7.32;97.68;100736.88;6155002;23;20036;-90
2023/09/27 02:12:44;;;;;;;0.70;0.70;;;;;;;7.35;98.03;100736.50;6155806;23;20021;-92
2023/09/27 02:15:14;;;;;;;0.70;0.70;;;;;;;7.40;98.06;100730.59;6154531;23;20096;-89
2023/09/27 02:17:42;;;;;;;0.70;0.70;;;;;;;7.45;98.05;100733.56;6129616;23;20048;-89
2023/09/27 02:20:13;;;;;;;0.75;0.75;;;;;;;7.48;97.78;100735.06;6155212;23;20017;-89
2023/09/27 02:22:41;;;;;;;0.77;0.77;;;;;;;7.45;97.91;100732.75;6130435;23;20017;-89
2023/09/27 02:25:10;;;;;;;0.70;0.70;;;;;;;7.43;97.88;100724.03;6156873;23;20055;-91
2023/09/27 02:27:38;;;;;;;0.80;0.80;;;;;;;7.45;98.16;100735.44;6163087;23;20032;-89
2023/09/27 02:30:11;;;;;;;0.80;0.80;;;;;;;7.41;98.11;100726.06;6159684;23;20044;-90
2023/09/27 02:32:42;;;;;;;0.70;0.70;;;;;;;7.33;98.49;100719.75;6155687;23;20017;-88
2023/09/27 02:35:12;;;;;;;0.80;0.80;;;;;;;7.36;98.79;100734.66;6155578;23;20039;-90
2023/09/27 02:37:41;;;;;;;0.73;0.73;;;;;;;7.32;98.54;100728.81;6155856;23;20092;-90
2023/09/27 02:40:11;;;;;;;0.70;0.70;;;;;;;7.34;98.84;100728.63;6156097;23;20049;-89
2023/09/27 02:42:42;;;;;;;0.60;0.60;;;;;;;7.40;99.00;100729.78;6156245;23;20353;-89
2023/09/27 02:45:11;;;;;;;0.80;0.80;;;;;;;7.41;98.97;100732.25;6155947;23;20080;-90
2023/09/27 02:47:43;;;;;;;0.73;0.73;;;;;;;7.38;99.00;100722.72;6156292;23;20029;-90
2023/09/27 02:50:11;;;;;;;0.70;0.70;;;;;;;7.38;98.82;100728.09;6082682;23;20021;-89
2023/09/27 02:52:39;;;;;;;0.70;0.70;;;;;;;7.31;98.73;100720.94;6082604;23;20026;-90
2023/09/27 02:55:11;;;;;;;0.70;0.70;;;;;;;7.16;98.94;100716.38;6081871;23;20354;-90
2023/09/27 02:57:50;;;;;;;0.80;0.80;;;;;;;7.19;99.20;100717.00;6083212;23;20461;-90
2023/09/27 03:00:22;;;;;;;0.70;0.70;;;;;;;7.14;99.23;100717.53;6159151;23;20021;-91
2023/09/27 03:02:49;;;;;;;0.70;0.70;;;;;;;7.16;99.58;100710.16;6156888;23;20032;-91
2023/09/27 03:05:17;;;;;;;0.70;0.70;;;;;;;7.20;99.45;100710.63;6155827;23;20480;-90
2023/09/27 03:07:45;;;;;;;0.80;0.80;;;;;;;7.16;99.25;100707.47;6156237;23;20068;-90
2023/09/27 03:10:13;;;;;;;0.70;0.70;;;;;;;7.14;99.12;100715.72;6130603;23;20037;-90
2023/09/27 03:12:41;;;;;;;0.70;0.70;;;;;;;6.99;99.01;100701.41;6105046;23;20026;-90
2023/09/27 03:15:11;;;;;;;0.70;0.70;;;;;;;7.02;99.13;100700.22;6159348;23;20021;-91
2023/09/27 03:17:42;;;;;;;0.65;0.65;;;;;;;7.04;99.15;100720.50;6135285;23;20081;-89
2023/09/27 03:20:18;;;;;;;0.75;0.75;;;;;;;6.91;99.29;100713.03;6134516;23;20044;-91
2023/09/27 03:22:48;;;;;;;0.70;0.70;;;;;;;6.98;99.14;100715.81;6131891;23;20025;-91
2023/09/27 03:25:19;;;;;;;0.70;0.70;;;;;;;6.97;99.34;100713.34;6160254;23;20025;-90
2023/09/27 03:27:47;;;;;;;0.70;0.70;;;;;;;6.88;99.04;100699.13;6131752;23;20026;-92
2023/09/27 03:30:16;;;;;;;0.70;0.70;;;;;;;6.93;99.35;100707.47;6158502;23;20401;-89
2023/09/27 03:32:45;;;;;;;0.70;0.70;;;;;;;6.95;99.05;100711.66;6108399;23;20100;-89
2023/09/27 03:35:14;;;;;;;0.70;0.70;;;;;;;7.00;99.38;100716.50;6146379;23;20021;-89
2023/09/27 03:37:42;;;;;;;0.75;0.75;;;;;;;7.03;99.33;100709.94;6116183;23;20396;-88
2023/09/27 03:40:13;;;;;;;0.80;0.80;;;;;;;7.02;99.15;100724.38;6129417;23;20021;-90
2023/09/27 03:42:45;;;;;;;0.70;0.70;;;;;;;7.05;99.08;100726.69;6166475;23;20026;-89
2023/09/27 03:45:14;;;;;;;0.70;0.70;;;;;;;7.09;99.12;100726.16;6157743;23;20088;-92
2023/09/27 03:47:47;;;;;;;0.80;0.80;;;;;;;7.07;98.66;100716.63;6108291;23;20338;-90
2023/09/27 03:50:18;;;;;;;0.70;0.70;;;;;;;7.05;98.54;100711.41;6133135;23;20142;-91
2023/09/27 03:52:45;;;;;;;0.60;0.60;;;;;;;7.01;98.08;100709.25;6111275;23;20033;-90
2023/09/27 03:55:13;;;;;;;0.75;0.75;;;;;;;7.04;98.19;100712.44;6154810;23;20508;-91
2023/09/27 03:57:41;;;;;;;0.80;0.80;;;;;;;7.12;98.27;100722.28;6133045;23;20018;-91
2023/09/27 04:00:16;;;;;;;0.73;0.73;;;;;;;7.20;98.37;100730.25;6159321;23;20025;-90
2023/09/27 04:02:46;;;;;;;0.80;0.80;;;;;;;7.10;98.23;100714.41;6067506;23;20025;-91
2023/09/27 04:05:16;;;;;;;0.70;0.70;;;;;;;7.31;98.24;100726.31;6130944;23;20033;-90
2023/09/27 04:07:44;;;;;;;0.70;0.70;;;;;;;7.43;98.03;100718.66;6129787;23;20049;-90
2023/09/27 04:10:11;;;;;;;0.80;0.80;;;;;;;7.48;97.78;100717.09;6157364;23;20025;-89
2023/09/27 04:12:38;;;;;;;0.70;0.70;;;;;;;7.62;98.00;100719.97;6161269;23;20021;-91
2023/09/27 04:15:09;;;;;;;0.70;0.70;;;;;;;7.76;97.40;100721.84;6170514;23;20033;-93
2023/09/27 04:17:38;;;;;;;0.70;0.70;;;;;;;7.80;96.62;100721.31;6162082;23;20036;-90
2023/09/27 04:20:14;;;;;;;0.80;0.80;;;;;;;7.76;96.38;100711.94;6140099;23;20032;-93
2023/09/27 04:22:47;;;;;;;0.70;0.70;;;;;;;7.89;95.95;100719.34;6140702;23;20021;-90
2023/09/27 04:25:16;;;;;;;0.80;0.80;;;;;;;8.01;95.46;100715.19;6093390;23;20028;-89
2023/09/27 04:27:49;;;;;;;0.70;0.70;;;;;;;8.04;95.07;100713.97;6121429;23;20032;-91
2023/09/27 04:30:19;;;;;;;0.70;0.70;;;;;;;8.01;94.56;100695.53;6138843;23;20033;-90
2023/09/27 04:32:50;;;;;;;0.70;0.70;;;;;;;8.04;94.60;100698.66;6157820;23;20029;-88
2023/09/27 04:35:18;;;;;;;0.70;0.70;;;;;;;8.19;94.19;100708.59;6111420;23;20499;-91
2023/09/27 04:37:47;;;;;;;0.70;0.70;;;;;;;8.30;93.81;100716.16;6157311;23;20026;-90
2023/09/27 04:40:25;;;;;;;0.70;0.70;;;;;;;8.41;93.42;100712.22;6090320;23;20026;-92
2023/09/27 04:42:53;;;;;;;0.70;0.70;;;;;;;8.39;92.82;100696.25;6087923;23;20029;-91
2023/09/27 04:45:20;;;;;;;0.60;0.60;;;;;;;8.43;92.68;100699.38;6135573;23;20083;-93
2023/09/27 04:47:49;;;;;;;0.65;0.65;;;;;;;8.55;92.47;100714.03;6140079;23;20021;-93
2023/09/27 04:50:17;;;;;;;0.70;0.70;;;;;;;8.59;92.60;100712.63;6163929;23;20021;-90
2023/09/27 04:52:44;;;;;;;0.70;0.70;;;;;;;8.68;92.39;100714.19;6139977;23;20017;-91
2023/09/27 04:55:13;;;;;;;0.70;0.70;;;;;;;8.72;92.27;100709.25;6161983;23;20028;-91
2023/09/27 04:57:43;;;;;;;0.70;0.70;;;;;;;8.74;91.94;100707.19;6111879;23;20025;-92
2023/09/27 05:00:19;;;;;;;0.70;0.70;;;;;;;8.79;91.56;100698.56;6115868;23;20026;-92
2023/09/27 05:02:58;;;;;;;0.70;0.70;;;;;;;8.89;91.19;100701.75;6139058;23;20080;-91
2023/09/27 05:05:51;;;;;;;0.70;0.70;;;;;;;9.19;90.94;100721.31;6141466;23;20021;-91
2023/09/27 05:08:19;;;;;;;0.70;0.70;;;;;;;9.29;90.58;100727.22;6115739;23;20026;-92
2023/09/27 05:10:48;;;;;;;0.70;0.70;;;;;;;9.37;89.97;100715.47;6137726;23;20035;-93
2023/09/27 05:13:16;;;;;;;0.70;0.70;;;;;;;9.46;89.47;100706.19;6165069;23;20025;-94
2023/09/27 05:15:49;;;;;;;0.60;0.60;;;;;;;9.58;89.02;100708.34;6144640;23;20026;-92
2023/09/27 05:18:19;;;;;;;0.60;0.60;;;;;;;9.73;88.38;100709.09;6142476;23;20053;-92
2023/09/27 05:20:46;;;;;;;0.68;0.68;;;;;;;9.91;87.71;100719.34;6167523;23;20028;-88
2023/09/27 05:23:28;;;;;;;0.70;0.70;;;;;;;10.08;87.24;100715.31;6076352;23;20021;-94
2023/09/27 05:26:17;;;;;;;0.60;0.60;;;;;;;10.27;86.51;100724.53;6105142;23;20021;-94
2023/09/27 05:28:46;;;;;;;0.70;0.70;;;;;;;10.33;85.97;100723.78;6073002;23;20021;-94
2023/09/27 05:31:30;;;;;;;0.70;0.70;;;;;;;10.40;85.54;100708.41;6126067;23;20025;-94
2023/09/27 05:33:58;;;;;;;0.70;0.70;;;;;;;10.56;85.15;100712.63;6100253;23;20011;-93
2023/09/27 05:36:26;;;;;;;0.60;0.60;;;;;;;10.80;84.49;100730.13;6137642;23;20026;-92
2023/09/27 05:38:59;;;;;;;0.60;0.60;;;;;;;10.84;84.19;100717.09;6122218;23;20021;-94
2023/09/27 05:41:28;;;;;;;0.68;0.68;;;;;;;10.97;83.58;100724.38;6076346;23;20049;-94
2023/09/27 05:43:56;;;;;;;0.70;0.70;;;;;;;11.11;83.09;100731.44;6144811;23;20048;-94
2023/09/27 05:46:51;;;;;;;0.60;0.60;;;;;;;11.33;82.39;100729.41;6099078;23;19998;-94
2023/09/27 05:49:31;;;;;;;0.60;0.60;;;;;;;11.42;81.87;100722.75;6104576;23;20017;-92
2023/09/27 05:52:16;;;;;;;0.60;0.60;;;;;;;11.50;81.26;100721.72;6030186;23;20027;-93
2023/09/27 05:55:42;;;;;;;0.70;0.70;;;;;;;11.59;79.58;100712.31;6029839;23;20027;-93
2023/09/27 05:58:59;;;;;;;0.60;0.60;;;;;;;11.71;78.60;100712.53;5933433;24;20062;-95
2023/09/27 06:03:09;;;;;;;0.50;0.50;;;;;;;11.92;77.84;100730.41;5938644;24;20037;-94
2023/09/27 06:10:48;;;;;;;0.60;0.60;;;;;;;12.07;76.93;100735.59;5932583;24;20056;-86
2023/09/27 06:13:50;;;;;;;0.60;0.60;;;;;;;12.18;76.52;100732.25;5857691;24;20023;-94
2023/09/27 06:16:48;;;;;;;0.60;0.60;;;;;;;12.38;75.70;100748.38;5860240;23;20967;-91
2023/09/27 06:23:30;;;;;;;0.60;0.60;;;;;;;12.39;73.43;100723.00;6177528;23;20005;-94
2023/09/27 06:29:27;;;;;;;0.60;0.60;;;;;;;12.51;73.18;100715.03;6174155;23;20009;-93
2023/09/27 06:35:21;;;;;;;0.50;0.50;;;;;;;12.77;72.59;100703.22;6193477;23;20039;-93
2023/09/27 06:39:43;;;;;;;0.60;0.60;;;;;;;12.99;72.03;100731.66;6071169;23;20007;-95
2023/09/27 06:43:45;;;;;;;0.60;0.60;;;;;;;13.07;71.22;100722.41;6060802;23;20052;-95
2023/09/27 06:49:27;;;;;;;0.52;0.52;;;;;;;13.33;71.04;100718.69;6182961;23;20040;-93
2023/09/27 06:52:14;;;;;;;0.60;0.60;;;;;;;13.51;70.67;100719.81;6185589;23;20028;-94
2023/09/27 06:55:10;;;;;;;0.60;0.60;;;;;;;13.69;69.76;100719.03;6168329;23;20004;-94
2023/09/27 06:58:02;;;;;;;0.60;0.60;;;;;;;13.91;68.91;100708.59;5978799;23;20039;-91
2023/09/27 07:00:29;;;;;;;0.60;0.60;;;;;;;14.15;68.08;100736.72;6078194;23;20125;-92
2023/09/27 07:02:56;;;;;;;0.68;0.68;;;;;;;14.30;67.59;100740.72;6076339;23;20027;-92
2023/09/27 07:05:26;;;;;;;0.60;0.60;;;;;;;14.45;67.11;100736.78;6067296;23;20059;-91
2023/09/27 07:07:54;;;;;;;0.50;0.50;;;;;;;14.59;66.83;100735.59;6062189;23;20027;-90
2023/09/27 07:10:23;;;;;;;0.60;0.60;;;;;;;14.71;66.12;100728.31;6065373;23;20023;-90
2023/09/27 07:12:50;;;;;;;0.70;0.70;;;;;;;14.84;66.10;100729.22;6042787;23;20114;-90
2023/09/27 07:15:17;;;;;;;0.65;0.65;;;;;;;14.96;64.94;100732.78;6064986;23;20026;-87
2023/09/27 07:17:44;;;;;;;0.60;0.60;;;;;;;15.04;64.88;100735.19;6041337;23;20030;-89
2023/09/27 07:22:42;;;;;;;0.60;0.60;;;;;;;15.18;63.37;100738.53;6062765;23;20054;-87
2023/09/27 07:25:16;;;;;;;0.60;0.60;;;;;;;15.20;63.36;100738.31;6038448;23;20030;-86
2023/09/27 07:27:44;;;;;;;0.65;0.65;;;;;;;15.38;62.49;100746.38;6062332;23;20027;-87
2023/09/27 07:30:11;;;;;;;0.55;0.55;;;;;;;15.51;61.84;100743.44;6152801;23;20064;-85
2023/09/27 07:32:41;;;;;;;0.60;0.60;;;;;;;15.58;61.06;100746.88;6125654;23;20021;-86
2023/09/27 07:35:09;;;;;;;0.50;0.50;;;;;;;15.72;61.03;100742.06;6127044;23;20064;-88
2023/09/27 07:37:37;;;;;;;0.60;0.60;;;;;;;15.92;59.96;100740.88;6080217;23;20360;-86
2023/09/27 07:40:11;;;;;;;0.60;0.60;;;;;;;16.01;59.13;100745.72;6127766;23;20437;-88
2023/09/27 07:42:43;;;;;;;0.60;0.60;;;;;;;15.98;59.14;100742.66;6129641;23;20028;-84
2023/09/27 07:45:27;;;;;;;0.55;0.55;;;;;;;16.29;58.62;100746.06;6154923;23;20048;-90
2023/09/27 07:47:55;;;;;;;0.60;0.60;;;;;;;16.42;58.06;100745.78;6127661;23;20101;-88
2023/09/27 07:50:31;;;;;;;0.50;0.50;;;;;;;16.59;57.97;100741.22;6126546;23;20046;-89
2023/09/27 07:52:59;;;;;;;0.60;0.60;;;;;;;16.70;57.40;100717.72;6125544;23;20050;-88
2023/09/27 07:55:27;;;;;;;0.60;0.60;;;;;;;17.29;56.15;100739.25;6123552;23;20025;-86
2023/09/27 07:57:54;;;;;;;0.60;0.60;;;;;;;17.47;54.28;100727.28;6125361;23;20026;-93
2023/09/27 08:00:27;;;;;;;0.60;0.60;;;;;;;17.70;53.61;100724.38;6126582;23;20096;-91
2023/09/27 08:02:58;;;;;;;0.60;0.60;;;;;;;17.99;52.51;100729.75;6129429;23;20091;-92
2023/09/27 08:05:26;;;;;;;0.60;0.60;;;;;;;18.37;51.50;100725.31;6127234;23;20022;-86
2023/09/27 08:07:54;;;;;;;0.60;0.60;;;;;;;18.65;50.99;100718.00;6128049;23;20085;-91
2023/09/27 08:10:22;;;;;;;0.60;0.60;;;;;;;18.86;50.04;100733.56;6131420;23;20357;-87
2023/09/27 08:12:50;;;;;;;0.60;0.60;;;;;;;19.11;49.20;100732.19;6124934;23;20025;-87
2023/09/27 08:15:17;;;;;;;0.60;0.60;;;;;;;19.17;48.96;100733.91;6126769;23;20029;-87
2023/09/27 08:17:47;;;;;;;0.60;0.60;;;;;;;19.33;48.33;100716.50;6128819;23;20025;-89
2023/09/27 08:20:18;;;;;;;0.60;0.60;;;;;;;19.52;47.75;100732.53;6128745;23;20052;-90
2023/09/27 08:22:45;;;;;;;0.60;0.60;;;;;;;19.82;46.68;100719.06;6124171;23;20030;-89
2023/09/27 08:25:15;;;;;;;0.60;0.60;;;;;;;19.97;46.79;100712.88;6129311;23;20018;-89
2023/09/27 08:27:43;;;;;;;0.60;0.60;;;;;;;20.18;45.98;100724.78;6125743;23;20425;-90
2023/09/27 08:30:14;;;;;;;0.57;0.57;;;;;;;20.14;46.10;100708.03;6100337;23;20026;-90
2023/09/27 08:32:41;;;;;;;0.50;0.50;;;;;;;20.50;45.36;100713.66;6124937;23;20052;-89
2023/09/27 08:35:10;;;;;;;0.60;0.60;;;;;;;20.89;44.40;100718.75;6126737;23;20036;-92
2023/09/27 08:37:37;;;;;;;0.50;0.50;;;;;;;21.18;44.02;100715.47;6138693;23;20022;-88
2023/09/27 08:40:07;;;;;;;0.60;0.60;;;;;;;20.81;43.94;100696.47;6134282;23;20045;-88
2023/09/27 08:42:34;;;;;;;0.60;0.60;;;;;;;21.25;43.42;100702.31;6125144;23;20026;-88
2023/09/27 08:45:04;;;;;;;0.60;0.60;;;;;;;21.56;42.81;100714.13;6125864;23;20117;-88
2023/09/27 08:47:32;;;;;;;0.60;0.60;;;;;;;20.86;43.56;100694.56;6123146;23;20033;-88
2023/09/27 08:49:59;;;;;;;0.60;0.60;;;;;;;21.11;43.15;100715.72;6126663;23;20446;-89
2023/09/27 08:52:30;;;;;;;0.60;0.60;;;;;;;21.45;42.79;100707.00;6084840;23;20026;-91
2023/09/27 08:54:57;;;;;;;0.60;0.60;;;;;;;21.58;41.80;100702.88;6052104;23;20025;-89
2023/09/27 08:57:26;;;;;;;0.50;0.50;;;;;;;21.82;41.32;100719.56;6100965;23;20030;-90
2023/09/27 08:59:53;;;;;;;0.50;0.50;;;;;;;21.86;41.14;100706.94;6100735;23;20105;-90
2023/09/27 09:02:23;;;;;;;0.60;0.60;;;;;;;21.98;41.51;100712.16;6080715;23;20022;-87
2023/09/27 09:04:51;;;;;;;0.55;0.55;;;;;;;22.22;40.84;100698.59;6076477;23;20026;-89
2023/09/27 09:07:18;;;;;;;0.60;0.60;;;;;;;22.94;39.70;100702.63;6099394;23;20026;-85
2023/09/27 09:09:46;;;;;;;0.60;0.60;;;;;;;22.87;39.27;100701.31;6124512;23;20068;-89
2023/09/27 09:12:13;;;;;;;0.60;0.60;;;;;;;22.23;40.15;100703.00;6126814;23;20021;-87
2023/09/27 09:14:49;;;;;;;0.60;0.60;;;;;;;22.49;40.39;100707.28;6099455;23;20112;-86
2023/09/27 09:17:24;;;;;;;0.60;0.60;;;;;;;22.96;39.10;100693.25;6124068;23;20029;-87
2023/09/27 09:20:17;;;;;;;0.60;0.60;;;;;;;22.94;38.53;100690.81;6124922;23;20029;-88
2023/09/27 09:22:45;;;;;;;0.60;0.60;;;;;;;22.63;39.20;100688.22;6105409;23;20025;-89
2023/09/27 09:25:13;;;;;;;0.50;0.50;;;;;;;23.21;38.59;100687.56;6132130;23;20026;-94
2023/09/27 09:28:03;;;;;;;0.52;0.52;;;;;;;23.48;37.71;100678.00;6130145;23;20025;-88
2023/09/27 09:30:39;;;;;;;0.50;0.50;;;;;;;23.74;37.42;100686.84;6128135;23;20022;-88
2023/09/27 09:33:28;;;;;;;0.60;0.60;;;;;;;23.66;37.40;100691.03;6137281;23;20377;-88
2023/09/27 09:35:56;;;;;;;0.60;0.60;;;;;;;23.76;36.74;100679.09;6085579;23;20033;-88
2023/09/27 09:38:30;;;;;;;0.60;0.60;;;;;;;23.82;36.78;100699.16;6133100;23;20022;-88
2023/09/27 09:41:00;;;;;;;0.60;0.60;;;;;;;24.07;37.01;100678.75;6106470;23;20048;-88
2023/09/27 09:43:34;;;;;;;0.60;0.60;;;;;;;24.81;35.82;100681.91;6080656;23;20117;-87
2023/09/27 09:46:03;;;;;;;0.60;0.60;;;;;;;25.00;35.34;100679.97;6129727;23;20026;-89
2023/09/27 09:48:33;;;;;;;0.60;0.60;;;;;;;25.35;35.06;100676.97;6144906;23;20033;-90
2023/09/27 09:51:06;;;;;;;0.60;0.60;;;;;;;25.55;34.48;100667.47;6154673;23;20112;-89
2023/09/27 09:53:38;;;;;;;0.50;0.50;;;;;;;25.69;34.16;100668.31;6132661;23;20028;-90
2023/09/27 09:56:13;;;;;;;0.50;0.50;;;;;;;26.20;33.63;100666.50;6154555;23;20041;-89
2023/09/27 09:58:47;;;;;;;0.55;0.55;;;;;;;26.48;32.86;100670.03;6158577;23;20054;-89
2023/09/27 10:01:21;;;;;;;0.50;0.50;;;;;;;26.87;32.20;100671.41;6131118;23;20768;-90
2023/09/27 10:03:51;;;;;;;;;;;;;;;26.80;32.55;100671.84;6156207;23;20100;-89
2023/09/27 10:06:20;;;;;;;0.50;0.50;;;;;;;26.29;32.65;100673.78;6157548;23;19975;-90
2023/09/27 10:09:13;;;;;;;0.50;0.50;;;;;;;25.45;33.91;100660.19;6165377;23;20021;-90
2023/09/27 10:11:44;;;;;;;0.50;0.50;;;;;;;26.16;32.54;100660.78;6165901;23;20030;-89
2023/09/27 10:14:16;;;;;;;0.50;0.50;;;;;;;26.71;32.10;100652.38;6109622;23;20100;-86
2023/09/27 10:16:43;;;;;;;0.50;0.50;;;;;;;27.11;31.51;100662.78;6108343;23;20121;-89
2023/09/27 10:19:13;;;;;;;0.50;0.50;;;;;;;26.69;32.02;100660.19;6129045;23;20045;-88
2023/09/27 10:22:02;;;;;;;0.50;0.50;;;;;;;26.30;32.71;100656.03;6155802;23;20025;-92
2023/09/27 10:24:29;;;;;;;0.50;0.50;;;;;;;26.38;32.27;100646.16;6155073;23;20044;-87
2023/09/27 10:26:56;;;;;;;0.50;0.50;;;;;;;26.12;32.47;100637.63;6153841;23;20441;-85
2023/09/27 10:29:23;;;;;;;0.50;0.50;;;;;;;26.06;32.49;100642.44;6153416;23;20354;-86
2023/09/27 10:31:56;;;;;;;0.50;0.50;;;;;;;26.15;32.38;100643.34;6153465;23;20049;-85
2023/09/27 10:34:34;;;;;;;0.50;0.50;;;;;;;26.44;31.96;100644.13;6129386;23;20021;-85
2023/09/27 10:37:04;;;;;;;0.50;0.50;;;;;;;26.59;31.77;100638.28;6133193;23;20045;-84
2023/09/27 10:40:17;;;;;;;0.50;0.50;;;;;;;27.41;30.92;100645.38;6132468;23;20100;-85
2023/09/27 10:42:44;;;;;;;0.50;0.50;;;;;;;27.57;30.45;100636.66;6129924;23;20137;-86
2023/09/27 10:45:12;;;;;;;0.50;0.50;;;;;;;27.32;30.81;100621.53;6132154;23;20036;-87
2023/09/27 10:47:40;;;;;;;0.50;0.50;;;;;;;27.75;30.04;100632.00;6129201;23;20483;-86
2023/09/27 10:50:10;;;;;;;0.50;0.50;;;;;;;27.78;30.21;100634.16;6154219;23;20048;-87
2023/09/27 10:52:40;;;;;;;0.50;0.50;;;;;;;27.66;29.81;100630.00;6153622;23;20146;-88
2023/09/27 10:55:11;;;;;;;0.50;0.50;;;;;;;27.95;29.40;100614.78;6081079;23;20022;-86
2023/09/27 10:57:40;;;;;;;0.50;0.50;;;;;;;28.15;29.29;100616.16;6130446;23;20127;-87
2023/09/27 11:00:10;;;;;;;0.47;0.47;;;;;;;27.91;29.43;100627.69;6137549;23;20551;-88
2023/09/27 11:02:37;;;;;;;0.50;0.50;;;;;;;27.30;30.34;100632.13;6132090;23;20457;-87
2023/09/27 11:05:06;;;;;;;0.50;0.50;;;;;;;27.01;30.38;100619.53;6105485;23;20105;-86
2023/09/27 11:07:45;;;;;;;0.50;0.50;;;;;;;27.64;30.36;100621.19;6156857;23;20025;-91
2023/09/27 11:10:18;;;;;;;0.40;0.40;;;;;;;28.87;28.91;100623.09;6157918;23;20076;-89
2023/09/27 11:12:46;;;;;;;0.40;0.40;;;;;;;29.78;27.10;100614.69;6157586;23;20021;-89
2023/09/27 11:15:22;;;;;;;0.40;0.40;;;;;;;30.03;27.11;100613.72;6088497;23;20041;-87
2023/09/27 11:17:55;;;;;;;0.40;0.40;;;;;;;29.95;26.57;100608.19;6133240;23;20033;-89
2023/09/27 11:20:24;;;;;;;0.40;0.40;;;;;;;29.76;26.71;100609.47;6116446;23;20024;-88
2023/09/27 11:23:05;;;;;;;0.40;0.40;;;;;;;28.68;27.82;100612.28;6113447;23;20357;-87
2023/09/27 11:25:33;;;;;;;0.40;0.40;;;;;;;28.46;28.08;100601.34;6083272;23;20406;-88
2023/09/27 11:28:01;;;;;;;0.40;0.40;;;;;;;28.85;27.93;100592.03;6130165;23;20033;-87
2023/09/27 11:30:32;;;;;;;0.45;0.45;;;;;;;29.08;27.74;100597.41;6128007;23;20093;-88
2023/09/27 11:33:04;;;;;;;0.40;0.40;;;;;;;29.30;27.17;100593.59;6156817;23;20032;-87
2023/09/27 11:35:32;;;;;;;0.40;0.40;;;;;;;28.64;27.73;100588.31;6127075;23;20092;-87
2023/09/27 11:38:11;;;;;;;0.40;0.40;;;;;;;28.66;28.02;100599.88;6127949;23;20025;-88
2023/09/27 11:40:41;;;;;;;0.40;0.40;;;;;;;29.31;27.47;100584.91;6129388;23;20076;-87
2023/09/27 11:43:09;;;;;;;0.40;0.40;;;;;;;29.59;26.94;100592.81;6154623;23;20032;-86
2023/09/27 11:45:46;;;;;;;0.30;0.30;;;;;;;29.04;27.58;100593.63;6156770;23;20025;-89
2023/09/27 11:48:15;;;;;;;0.40;0.40;;;;;;;28.49;27.63;100595.16;6126864;23;20491;-89
2023/09/27 11:50:43;;;;;;;0.40;0.40;;;;;;;28.35;27.49;100595.28;6129274;23;20029;-86
2023/09/27 11:53:11;;;;;;;0.40;0.40;;;;;;;28.32;27.44;100584.84;6128755;23;20025;-86
2023/09/27 11:55:38;;;;;;;0.40;0.40;;;;;;;28.57;27.57;100597.13;6154469;23;20021;-86
2023/09/27 11:58:05;;;;;;;0.40;0.40;;;;;;;29.28;26.92;100593.13;6128344;23;20022;-87
2023/09/27 12:00:32;;;;;;;0.40;0.40;;;;;;;29.71;26.11;100581.81;6152718;23;20479;-86
2023/09/27 12:03:00;;;;;;;0.40;0.40;;;;;;;30.49;25.67;100585.25;6105438;23;20060;-85
2023/09/27 12:05:28;;;;;;;0.40;0.40;;;;;;;30.32;25.60;100580.66;6128803;23;20022;-85
2023/09/27 12:07:56;;;;;;;0.40;0.40;;;;;;;29.77;25.89;100579.66;6085359;23;20026;-90
2023/09/27 12:10:24;;;;;;;0.40;0.40;;;;;;;29.25;26.62;100585.44;6135352;23;20402;-89
2023/09/27 12:12:55;;;;;;;0.40;0.40;;;;;;;29.04;27.41;100576.94;6109351;23;20021;-88
2023/09/27 12:15:22;;;;;;;0.40;0.40;;;;;;;29.43;26.71;100575.06;6159025;23;20528;-87